Time,TemperatureF,DewpointF,PressureIn,WindDirection,WindDirectionDegrees,WindSpeedMPH,WindSpeedGustMPH,Humidity,HourlyPrecipIn,Conditions,Clouds,dailyrainin,SolarRadiationWatts/m^2,SoftwareType,DateUTC
2013-04-15 00:02:00,57.9,54.0,29.80,SSE,160,2.0,8.0,85,0.00,,,0.00,0,weatherlink.com 1.10,2013-04-15 05:02:00,
2013-04-15 00:17:00,57.9,54.0,29.81,SE,139,2.0,6.0,86,0.00,,,0.00,0,weatherlink.com 1.10,2013-04-15 05:17:00,
2013-04-15 00:32:00,57.9,54.0,29.82,SE,133,3.0,6.0,86,0.00,,,0.00,0,weatherlink.com 1.10,2013-04-15 05:32:00,
2013-04-15 00:47:00,57.9,54.0,29.82,ESE,109,1.0,5.0,86,0.00,,,0.00,0,weatherlink.com 1.10,2013-04-15 05:47:00,
2013-04-15 01:02:00,57.9,54.0,29.82,SSE,153,4.0,7.0,86,0.00,,,0.00,0,weatherlink.com 1.10,2013-04-15 06:02:00,
2013-04-15 01:17:00,57.6,54.0,29.82,ESE,116,5.0,9.0,87,0.00,,,0.00,0,weatherlink.com 1.10,2013-04-15 06:17:00,
2013-04-15 01:33:00,57.5,54.0,29.82,SE,143,2.0,10.0,87,0.00,,,0.00,0,weatherlink.com 1.10,2013-04-15 06:33:00,
2013-04-15 01:47:00,57.5,54.0,29.81,SSE,147,5.0,10.0,87,0.00,,,0.00,0,weatherlink.com 1.10,2013-04-15 06:47:00,
2013-04-15 02:02:00,57.1,54.0,29.81,SSE,153,4.0,7.0,88,0.00,,,0.00,0,weatherlink.com 1.10,2013-04-15 07:02:00,
2013-04-15 02:48:00,56.3,53.0,29.81,ESE,120,1.0,5.0,89,0.00,,,0.00,0,weatherlink.com 1.10,2013-04-15 07:48:00,
2013-04-15 03:03:00,56.2,53.0,29.81,SSE,164,2.0,8.0,90,0.00,,,0.00,0,weatherlink.com 1.10,2013-04-15 08:03:00,
2013-04-15 03:18:00,56.1,53.0,29.81,ESE,114,1.0,7.0,90,0.00,,,0.00,0,weatherlink.com 1.10,2013-04-15 08:18:00,
2013-04-15 03:33:00,56.3,54.0,29.82,ESE,112,0.0,5.0,91,0.00,,,0.00,0,weatherlink.com 1.10,2013-04-15 08:33:00,
2013-04-15 03:48:00,56.2,54.0,29.82,SE,137,3.0,6.0,91,0.00,,,0.00,0,weatherlink.com 1.10,2013-04-15 08:48:00,
2013-04-15 04:03:00,56.1,54.0,29.82,SE,135,2.0,5.0,91,0.00,,,0.00,0,weatherlink.com 1.10,2013-04-15 09:03:00,
2013-04-15 04:18:00,56.0,54.0,29.82,ESE,118,0.0,4.0,91,0.00,,,0.00,0,weatherlink.com 1.10,2013-04-15 09:18:00,
2013-04-15 04:33:00,55.8,53.0,29.84,SE,143,1.0,5.0,91,0.00,,,0.00,0,weatherlink.com 1.10,2013-04-15 09:33:00,
2013-04-15 04:48:00,55.7,53.0,29.84,ESE,120,3.0,4.0,91,0.00,,,0.00,0,weatherlink.com 1.10,2013-04-15 09:48:00,
2013-04-15 05:03:00,55.5,53.0,29.84,ESE,105,1.0,4.0,92,0.00,,,0.00,0,weatherlink.com 1.10,2013-04-15 10:03:00,
2013-04-15 05:18:00,55.2,53.0,29.84,ESE,122,2.0,3.0,92,0.00,,,0.00,0,weatherlink.com 1.10,2013-04-15 10:18:00,
2013-04-15 05:33:00,55.0,53.0,29.85,East,91,2.0,5.0,93,0.00,,,0.00,0,weatherlink.com 1.10,2013-04-15 10:33:00,
2013-04-15 05:48:00,54.8,53.0,29.85,SSE,147,2.0,5.0,93,0.00,,,0.00,0,weatherlink.com 1.10,2013-04-15 10:48:00,
2013-04-15 06:03:00,54.8,53.0,29.86,SE,141,1.0,5.0,93,0.00,,,0.00,0,weatherlink.com 1.10,2013-04-15 11:03:00,
2013-04-15 06:18:00,54.7,53.0,29.86,South,170,2.0,7.0,93,0.00,,,0.00,0,weatherlink.com 1.10,2013-04-15 11:18:00,
2013-04-15 06:33:00,54.6,53.0,29.87,SE,126,3.0,5.0,94,0.00,,,0.00,7,weatherlink.com 1.10,2013-04-15 11:33:00,
2013-04-15 07:34:00,56.3,55.0,29.89,SSE,153,5.0,10.0,95,0.00,,,0.00,67,weatherlink.com 1.10,2013-04-15 12:34:00,
2013-04-15 07:49:00,56.8,55.0,29.89,ESE,116,3.0,8.0,95,0.00,,,0.00,98,weatherlink.com 1.10,2013-04-15 12:49:00,
2013-04-15 08:19:00,57.7,56.0,29.89,SSE,151,3.0,8.0,95,0.00,,,0.00,130,weatherlink.com 1.10,2013-04-15 13:19:00,
2013-04-15 08:35:00,58.1,56.0,29.90,SE,142,8.0,10.0,94,0.00,,,0.00,174,weatherlink.com 1.10,2013-04-15 13:35:00,
2013-04-15 08:49:00,58.4,57.0,29.90,South,180,4.0,11.0,94,0.00,,,0.00,160,weatherlink.com 1.10,2013-04-15 13:49:00,
2013-04-15 09:04:00,59.1,57.0,29.90,ESE,120,7.0,10.0,94,0.00,,,0.00,239,weatherlink.com 1.10,2013-04-15 14:04:00,
2013-04-15 09:36:00,60.6,58.0,29.90,South,174,5.0,10.0,91,0.00,,,0.00,350,weatherlink.com 1.10,2013-04-15 14:36:00,
2013-04-15 09:50:00,61.7,59.0,29.91,SSW,203,4.0,7.0,91,0.00,,,0.00,304,weatherlink.com 1.10,2013-04-15 14:50:00,
2013-04-15 10:20:00,64.7,60.0,29.91,SSE,166,6.0,8.0,85,0.00,,,0.00,735,weatherlink.com 1.10,2013-04-15 15:20:00,
2013-04-15 10:35:00,65.7,61.0,29.91,SE,139,5.0,9.0,84,0.00,,,0.00,742,weatherlink.com 1.10,2013-04-15 15:35:00,
2013-04-15 11:21:00,68.6,62.0,29.91,SE,141,4.0,12.0,79,0.00,,,0.00,824,weatherlink.com 1.10,2013-04-15 16:21:00,
2013-04-15 11:37:00,69.7,62.0,29.91,SSE,164,5.0,9.0,77,0.00,,,0.00,851,weatherlink.com 1.10,2013-04-15 16:37:00,
2013-04-15 11:51:00,70.0,63.0,29.91,SSE,150,6.0,12.0,77,0.00,,,0.00,872,weatherlink.com 1.10,2013-04-15 16:51:00,
2013-04-15 12:06:00,70.2,62.0,29.90,SSE,164,8.0,15.0,76,0.00,,,0.00,904,weatherlink.com 1.10,2013-04-15 17:06:00,
2013-04-15 12:23:00,71.2,63.0,29.89,South,170,4.0,10.0,75,0.00,,,0.00,902,weatherlink.com 1.10,2013-04-15 17:23:00,
2013-04-15 12:37:00,71.9,63.0,29.89,ESE,122,8.0,14.0,73,0.00,,,0.00,914,weatherlink.com 1.10,2013-04-15 17:37:00,
2013-04-15 12:52:00,72.3,63.0,29.89,SE,137,3.0,11.0,72,0.00,,,0.00,988,weatherlink.com 1.10,2013-04-15 17:52:00,
2013-04-15 13:07:00,72.8,63.0,29.89,South,176,8.0,13.0,72,0.00,,,0.00,918,weatherlink.com 1.10,2013-04-15 18:07:00,
2013-04-15 13:22:00,73.1,64.0,29.88,ESE,118,8.0,14.0,72,0.00,,,0.00,911,weatherlink.com 1.10,2013-04-15 18:22:00,
2013-04-15 13:37:00,73.9,63.0,29.87,South,180,4.0,12.0,69,0.00,,,0.00,889,weatherlink.com 1.10,2013-04-15 18:37:00,
2013-04-15 13:54:00,74.4,63.0,29.87,SE,142,7.0,14.0,68,0.00,,,0.00,877,weatherlink.com 1.10,2013-04-15 18:54:00,
2013-04-15 14:09:00,75.4,64.0,29.86,SSE,166,6.0,12.0,67,0.00,,,0.00,860,weatherlink.com 1.10,2013-04-15 19:09:00,
2013-04-15 14:24:00,75.5,63.0,29.86,ESE,122,5.0,11.0,66,0.00,,,0.00,837,weatherlink.com 1.10,2013-04-15 19:24:00,
2013-04-15 14:39:00,76.3,63.0,29.85,SSE,155,4.0,14.0,64,0.00,,,0.00,816,weatherlink.com 1.10,2013-04-15 19:39:00,
2013-04-15 15:09:00,77.5,63.0,29.84,SSW,192,7.0,12.0,62,0.00,,,0.00,752,weatherlink.com 1.10,2013-04-15 20:09:00,
2013-04-15 15:24:00,78.0,64.0,29.83,SSE,160,7.0,15.0,62,0.00,,,0.00,719,weatherlink.com 1.10,2013-04-15 20:24:00,
2013-04-15 15:39:00,78.7,64.0,29.83,South,189,5.0,11.0,61,0.00,,,0.00,682,weatherlink.com 1.10,2013-04-15 20:39:00,
2013-04-15 15:54:00,79.4,63.0,29.83,SSE,164,8.0,12.0,58,0.00,,,0.00,643,weatherlink.com 1.10,2013-04-15 20:54:00,
2013-04-15 16:09:00,80.0,63.0,29.82,SE,143,3.0,10.0,57,0.00,,,0.00,598,weatherlink.com 1.10,2013-04-15 21:09:00,
2013-04-15 16:24:00,80.3,64.0,29.82,SSE,149,4.0,11.0,57,0.00,,,0.00,555,weatherlink.com 1.10,2013-04-15 21:24:00,
2013-04-15 16:39:00,80.5,62.0,29.82,SE,124,4.0,14.0,54,0.00,,,0.00,506,weatherlink.com 1.10,2013-04-15 21:39:00,
2013-04-15 16:54:00,80.4,62.0,29.82,SSE,165,5.0,14.0,53,0.00,,,0.00,455,weatherlink.com 1.10,2013-04-15 21:54:00,
2013-04-15 17:09:00,80.7,62.0,29.82,SSW,197,7.0,14.0,54,0.00,,,0.00,406,weatherlink.com 1.10,2013-04-15 22:09:00,
2013-04-15 17:25:00,81.0,62.0,29.82,SSW,202,7.0,10.0,53,0.00,,,0.00,350,weatherlink.com 1.10,2013-04-15 22:25:00,
2013-04-15 17:40:00,80.8,63.0,29.82,SE,145,4.0,10.0,54,0.00,,,0.00,297,weatherlink.com 1.10,2013-04-15 22:40:00,
2013-04-15 17:55:00,80.5,62.0,29.82,South,175,7.0,12.0,54,0.00,,,0.00,243,weatherlink.com 1.10,2013-04-15 22:55:00,
2013-04-15 18:10:00,80.5,63.0,29.82,SSE,158,6.0,9.0,55,0.00,,,0.00,192,weatherlink.com 1.10,2013-04-15 23:10:00,
2013-04-15 18:25:00,80.0,62.0,29.82,SSE,168,5.0,12.0,55,0.00,,,0.00,46,weatherlink.com 1.10,2013-04-15 23:25:00,
2013-04-15 18:40:00,79.4,62.0,29.82,SSE,154,7.0,10.0,56,0.00,,,0.00,90,weatherlink.com 1.10,2013-04-15 23:40:00,
2013-04-15 18:55:00,78.7,62.0,29.82,SE,131,5.0,11.0,57,0.00,,,0.00,47,weatherlink.com 1.10,2013-04-15 23:55:00,
2013-04-15 19:10:00,78.1,62.0,29.82,South,173,3.0,10.0,58,0.00,,,0.00,21,weatherlink.com 1.10,2013-04-16 00:10:00,
2013-04-15 19:26:00,77.3,62.0,29.83,South,169,1.0,8.0,60,0.00,,,0.00,11,weatherlink.com 1.10,2013-04-16 00:26:00,
2013-04-15 19:40:00,76.5,62.0,29.83,SSE,155,6.0,9.0,61,0.00,,,0.00,0,weatherlink.com 1.10,2013-04-16 00:40:00,
2013-04-15 19:55:00,75.9,62.0,29.84,SE,133,2.0,6.0,63,0.00,,,0.00,0,weatherlink.com 1.10,2013-04-16 00:55:00,
2013-04-15 20:10:00,74.9,62.0,29.84,SE,129,1.0,3.0,65,0.00,,,0.00,0,weatherlink.com 1.10,2013-04-16 01:10:00,
2013-04-15 20:25:00,74.0,62.0,29.84,SSE,162,7.0,7.0,67,0.00,,,0.00,0,weatherlink.com 1.10,2013-04-16 01:25:00,
2013-04-15 20:40:00,73.8,63.0,29.85,SSE,147,4.0,10.0,68,0.00,,,0.00,0,weatherlink.com 1.10,2013-04-16 01:40:00,
2013-04-15 20:55:00,73.5,63.0,29.86,SSE,158,9.0,10.0,69,0.00,,,0.00,0,weatherlink.com 1.10,2013-04-16 01:55:00,
2013-04-15 21:10:00,73.1,63.0,29.86,SSE,147,4.0,9.0,70,0.00,,,0.00,0,weatherlink.com 1.10,2013-04-16 02:10:00,
2013-04-15 21:25:00,72.6,63.0,29.87,SE,146,4.0,9.0,71,0.00,,,0.00,0,weatherlink.com 1.10,2013-04-16 02:25:00,
2013-04-15 21:40:00,72.2,63.0,29.88,SE,133,4.0,9.0,72,0.00,,,0.00,0,weatherlink.com 1.10,2013-04-16 02:40:00,
2013-04-15 21:55:00,71.7,63.0,29.88,SSE,154,6.0,8.0,74,0.00,,,0.00,0,weatherlink.com 1.10,2013-04-16 02:55:00,
2013-04-15 22:10:00,71.4,63.0,29.88,SE,137,6.0,11.0,75,0.00,,,0.00,0,weatherlink.com 1.10,2013-04-16 03:10:00,
2013-04-15 22:25:00,71.0,63.0,29.89,SSE,149,3.0,11.0,76,0.00,,,0.00,0,weatherlink.com 1.10,2013-04-16 03:25:00,
2013-04-15 22:40:00,70.6,63.0,29.89,SSE,151,4.0,9.0,77,0.00,,,0.00,0,weatherlink.com 1.10,2013-04-16 03:40:00,
2013-04-15 22:55:00,70.3,63.0,29.89,SE,143,3.0,11.0,78,0.00,,,0.00,0,weatherlink.com 1.10,2013-04-16 03:55:00,
2013-04-15 23:10:00,70.0,63.0,29.89,SSE,149,5.0,9.0,79,0.00,,,0.00,0,weatherlink.com 1.10,2013-04-16 04:10:00,
2013-04-15 23:25:00,69.7,63.0,29.89,SE,143,6.0,14.0,80,0.00,,,0.00,0,weatherlink.com 1.10,2013-04-16 04:25:00,
2013-04-15 23:40:00,69.6,64.0,29.89,SE,145,4.0,10.0,81,0.00,,,0.00,0,weatherlink.com 1.10,2013-04-16 04:40:00,
2013-04-15 23:55:00,69.4,63.0,29.89,SSE,158,5.0,9.0,81,0.00,,,0.00,0,weatherlink.com 1.10,2013-04-16 04:55:00,